Time;durP1;ratioP1;P1;durP2;ratioP2;P2;SDS_P1;SDS_P2;PMS_P1;PMS_P2;Temp;Humidity;BMP_temperature;BMP_pressure;BME280_temperature;BME280_humidity;BME280_pressure;Samples;Min_cycle;Max_cycle;Signal;HPM_P1;HPM_P2
2023/01/13 00:01:18;;;;;;;;;;;;;;;16.33;64.06;101573.28;7406419;19;1358;-77
2023/01/13 00:03:47;;;;;;;;;;;;;;;16.38;64.30;101573.00;7403968;19;1861;-78
2023/01/13 00:06:15;;;;;;;;;;;;;;;16.49;64.21;101582.03;7404814;19;1749;-78
2023/01/13 00:08:44;;;;;;;;;;;;;;;16.81;63.05;101571.09;7406680;19;1577;-78
2023/01/13 00:11:12;;;;;;;;;;;;;;;17.80;60.72;101581.28;7405798;19;1663;-78
2023/01/13 00:13:40;;;;;;;;;;;;;;;18.47;59.02;101569.41;7405268;19;1584;-78
2023/01/13 00:16:11;;;;;;;;;;;;;;;18.87;57.90;101569.16;7405545;19;1572;-78
2023/01/13 00:18:42;;;;;;;;;;;;;;;18.98;57.75;101574.59;7404307;19;1580;-78
2023/01/13 00:21:13;;;;;;;;;;;;;;;19.13;57.46;101579.75;7404449;19;1477;-78
2023/01/13 00:23:42;;;;;;;;;;;;;;;19.09;57.61;101576.44;7405424;19;1856;-78
2023/01/13 00:26:16;;;;;;;;;;;;;;;19.15;57.66;101575.97;7403818;19;1637;-78
2023/01/13 00:28:44;;;;;;;;;;;;;;;19.18;57.49;101570.41;7405126;19;1762;-78
2023/01/13 00:31:14;;;;;;;;;;;;;;;19.19;57.67;101571.25;7402632;19;1727;-78
2023/01/13 00:33:45;;;;;;;;;;;;;;;19.25;57.41;101576.13;7404780;19;1868;-78
2023/01/13 00:36:14;;;;;;;;;;;;;;;19.35;57.07;101579.81;7404637;19;1507;-78
2023/01/13 00:38:43;;;;;;;;;;;;;;;19.38;57.12;101581.44;7404881;19;1604;-78
2023/01/13 00:41:12;;;;;;;;;;;;;;;19.37;57.12;101577.88;7404800;19;1682;-78
2023/01/13 00:43:38;;;;;;;;;;;;;;;19.43;57.12;101577.38;7405844;19;1846;-78
2023/01/13 00:46:08;;;;;;;;;;;;;;;19.35;57.56;101570.91;7413582;19;1009;-78
2023/01/13 00:48:37;;;;;;;;;;;;;;;19.07;58.99;101573.88;7407255;19;1461;-78
2023/01/13 00:51:09;;;;;;;;;;;;;;;18.37;59.99;101571.06;7412178;19;1533;-78
2023/01/13 00:53:38;;;;;;;;;;;;;;;17.81;61.44;101580.34;7412141;19;1702;-78
2023/01/13 00:56:08;;;;;;;;;;;;;;;17.50;62.11;101569.06;7412032;19;1805;-78
2023/01/13 00:58:37;;;;;;;;;;;;;;;17.32;62.56;101575.69;7412184;19;1604;-78
2023/01/13 01:01:06;;;;;;;;;;;;;;;17.24;62.79;101568.19;7411125;19;1612;-78
2023/01/13 01:03:34;;;;;;;;;;;;;;;17.17;62.38;101572.25;7409401;19;1849;-78
2023/01/13 01:06:09;;;;;;;;;;;;;;;17.12;62.52;101565.50;7412975;19;1008;-78
2023/01/13 01:08:37;;;;;;;;;;;;;;;17.10;62.91;101570.97;7412498;19;1734;-78
2023/01/13 01:11:06;;;;;;;;;;;;;;;17.00;62.22;101559.19;7412061;19;1464;-78
2023/01/13 01:13:35;;;;;;;;;;;;;;;17.00;62.23;101565.38;7409049;19;1418;-78
2023/01/13 01:16:08;;;;;;;;;;;;;;;16.94;62.78;101564.94;7406816;19;1386;-78
2023/01/13 01:18:36;;;;;;;;;;;;;;;16.87;63.17;101556.44;7409264;19;1601;-78
2023/01/13 01:21:08;;;;;;;;;;;;;;;16.87;62.30;101559.13;7412287;19;1171;-78
2023/01/13 01:23:37;;;;;;;;;;;;;;;16.76;62.85;101550.97;7410161;19;1833;-78
2023/01/13 01:26:06;;;;;;;;;;;;;;;16.76;62.91;101565.16;7411640;19;1623;-78
2023/01/13 01:28:35;;;;;;;;;;;;;;;16.74;62.17;101558.22;7410272;19;1738;-78
2023/01/13 01:31:07;;;;;;;;;;;;;;;16.75;62.09;101562.59;7410554;19;1863;-78
2023/01/13 01:33:35;;;;;;;;;;;;;;;16.70;61.99;101542.38;7411589;19;1659;-78
2023/01/13 01:36:03;;;;;;;;;;;;;;;16.68;62.17;101549.63;7408565;19;1545;-77
2023/01/13 01:38:34;;;;;;;;;;;;;;;16.60;62.36;101543.94;7409827;19;1383;-78
2023/01/13 01:41:03;;;;;;;;;;;;;;;16.59;62.26;101544.91;7409765;19;1595;-78
2023/01/13 01:43:58;;;;;;;;;;;;;;;16.57;62.29;101552.16;7407869;19;1817;-78
2023/01/13 01:46:27;;;;;;;;;;;;;;;16.52;62.20;101540.94;7408555;19;1451;-78
2023/01/13 01:48:56;;;;;;;;;;;;;;;16.52;62.22;101554.28;7410563;19;1596;-78
2023/01/13 01:51:25;;;;;;;;;;;;;;;16.49;62.43;101554.47;7411497;19;1024;-78
2023/01/13 01:53:58;;;;;;;;;;;;;;;16.48;62.40;101552.75;7411435;19;1699;-78
2023/01/13 01:56:27;;;;;;;;;;;;;;;16.42;62.52;101547.81;7408721;19;1664;-78
2023/01/13 01:58:55;;;;;;;;;;;;;;;16.42;61.96;101539.81;7406861;19;1737;-78
2023/01/13 02:01:24;;;;;;;;;;;;;;;16.41;62.32;101543.44;7409616;19;1608;-77
2023/01/13 02:03:55;;;;;;;;;;;;;;;16.36;62.08;101537.56;7409128;19;1840;-78
2023/01/13 02:06:24;;;;;;;;;;;;;;;16.37;62.61;101550.78;7409101;19;1675;-78
2023/01/13 02:08:53;;;;;;;;;;;;;;;16.39;62.00;101548.00;7409183;19;1255;-78
2023/01/13 02:14:15;;;;;;;;;;;;;;;16.37;62.09;101544.59;7407505;19;1534;-77
2023/01/13 02:16:46;;;;;;;;;;;;;;;16.35;61.82;101531.34;7407862;19;1591;-77
2023/01/13 02:19:24;;;;;;;;;;;;;;;16.36;61.72;101537.56;7408157;19;1698;-78
2023/01/13 02:22:07;;;;;;;;;;;;;;;16.33;61.65;101543.06;7406733;19;1659;-78
2023/01/13 02:24:54;;;;;;;;;;;;;;;16.30;61.76;101542.31;7406164;19;1845;-78
2023/01/13 02:27:40;;;;;;;;;;;;;;;16.29;61.81;101537.06;7407391;19;1599;-78
2023/01/13 02:33:04;;;;;;;;;;;;;;;16.28;61.64;101540.72;7409413;19;1572;-77
2023/01/13 02:35:35;;;;;;;;;;;;;;;16.27;61.49;101538.97;7408120;19;1596;-77
2023/01/13 02:38:03;;;;;;;;;;;;;;;16.30;61.67;101555.66;7406917;19;1490;-78
2023/01/13 02:40:35;;;;;;;;;;;;;;;16.24;61.70;101537.38;7409525;19;1686;-78
2023/01/13 02:45:52;;;;;;;;;;;;;;;16.23;61.73;101551.66;7410165;19;829;-78
2023/01/13 02:48:22;;;;;;;;;;;;;;;16.24;61.65;101540.03;7405789;19;1609;-78
2023/01/13 02:50:55;;;;;;;;;;;;;;;16.46;61.60;101541.31;7408384;19;1816;-78
2023/01/13 02:53:25;;;;;;;;;;;;;;;17.25;59.58;101521.81;7406908;19;1810;-78
2023/01/13 02:55:55;;;;;;;;;;;;;;;18.03;57.45;101542.22;7408902;19;1604;-78
2023/01/13 02:58:26;;;;;;;;;;;;;;;18.32;56.64;101528.53;7405924;19;1485;-78
2023/01/13 03:00:57;;;;;;;;;;;;;;;17.66;58.14;101530.56;7406796;19;1534;-78
2023/01/13 03:03:26;;;;;;;;;;;;;;;17.19;58.75;101538.28;7407393;19;1855;-78
2023/01/13 03:05:57;;;;;;;;;;;;;;;16.86;59.94;101546.75;7408382;19;1127;-78
2023/01/13 03:08:38;;;;;;;;;;;;;;;16.65;59.96;101533.84;7407690;19;1809;-78
2023/01/13 03:11:11;;;;;;;;;;;;;;;17.00;60.17;101554.69;7406006;19;1549;-78
2023/01/13 03:13:46;;;;;;;;;;;;;;;17.97;57.48;101539.16;7404770;19;1749;-78
2023/01/13 03:16:21;;;;;;;;;;;;;;;18.91;55.61;101535.81;7407568;19;1372;-78
2023/01/13 03:18:54;;;;;;;;;;;;;;;19.46;54.25;101541.44;7406806;19;1390;-78
2023/01/13 03:21:25;;;;;;;;;;;;;;;19.79;53.55;101542.47;7408073;19;1713;-78
2023/01/13 03:23:56;;;;;;;;;;;;;;;19.79;53.83;101537.94;7406414;19;1849;-78
2023/01/13 03:26:29;;;;;;;;;;;;;;;19.64;54.05;101529.25;7408428;19;1143;-78
2023/01/13 03:29:00;;;;;;;;;;;;;;;19.76;53.93;101532.84;7408426;19;1020;-78
2023/01/13 03:31:33;;;;;;;;;;;;;;;19.74;54.02;101534.78;7407106;19;1734;-78
2023/01/13 03:34:03;;;;;;;;;;;;;;;19.86;54.26;101539.19;7407321;19;1723;-78
2023/01/13 03:36:33;;;;;;;;;;;;;;;19.83;54.68;101534.03;7406732;19;1537;-78
2023/01/13 03:39:03;;;;;;;;;;;;;;;19.82;55.01;101542.25;7405980;19;1608;-78
2023/01/13 03:41:38;;;;;;;;;;;;;;;19.90;54.94;101533.59;7406743;19;1584;-78
2023/01/13 03:46:54;;;;;;;;;;;;;;;19.79;55.63;101537.94;7407784;19;1682;-78
2023/01/13 03:49:26;;;;;;;;;;;;;;;19.74;55.62;101550.06;7405633;19;1355;-78
2023/01/13 03:51:56;;;;;;;;;;;;;;;19.66;55.94;101567.56;7405807;19;1491;-78
2023/01/13 03:54:27;;;;;;;;;;;;;;;19.34;56.99;101551.31;7405582;19;1316;-78
2023/01/13 03:56:58;;;;;;;;;;;;;;;18.55;58.59;101561.66;7406133;19;995;-78
2023/01/13 03:59:29;;;;;;;;;;;;;;;18.00;60.10;101560.31;7406368;19;1675;-78
2023/01/13 04:02:03;;;;;;;;;;;;;;;17.58;61.13;101549.81;7404126;19;1585;-76
2023/01/13 04:04:33;;;;;;;;;;;;;;;17.37;61.93;101570.91;7403914;19;1839;-78
2023/01/13 04:07:08;;;;;;;;;;;;;;;17.83;61.04;101570.41;7403229;19;1478;-78
2023/01/13 04:09:42;;;;;;;;;;;;;;;19.27;57.47;101560.78;7403798;19;1391;-78
2023/01/13 04:12:13;;;;;;;;;;;;;;;19.63;56.34;101551.69;7407332;19;975;-77
2023/01/13 04:14:41;;;;;;;;;;;;;;;19.97;55.94;101565.16;7404348;19;1554;-78
2023/01/13 04:17:12;;;;;;;;;;;;;;;19.86;56.31;101551.75;7404988;19;1647;-78
2023/01/13 04:19:40;;;;;;;;;;;;;;;19.68;57.02;101576.34;7402229;19;1598;-78
2023/01/13 04:22:09;;;;;;;;;;;;;;;19.58;56.95;101561.09;7403846;19;1592;-78
2023/01/13 04:24:37;;;;;;;;;;;;;;;19.75;56.77;101563.31;7402353;19;1841;-78
2023/01/13 04:27:05;;;;;;;;;;;;;;;19.79;56.81;101564.78;7403980;19;1615;-78
2023/01/13 04:29:33;;;;;;;;;;;;;;;19.75;56.90;101555.28;7405151;19;1679;-78
2023/01/13 04:32:02;;;;;;;;;;;;;;;19.89;56.54;101556.84;7405589;19;1600;-78
2023/01/13 04:34:33;;;;;;;;;;;;;;;19.89;56.53;101561.38;7403608;19;1351;-78
2023/01/13 04:37:01;;;;;;;;;;;;;;;19.88;56.71;101560.53;7405147;19;1054;-78
2023/01/13 04:39:30;;;;;;;;;;;;;;;20.09;56.28;101559.78;7405057;19;1781;-78
2023/01/13 04:42:01;;;;;;;;;;;;;;;19.85;56.88;101563.44;7404413;19;1806;-78
2023/01/13 04:44:34;;;;;;;;;;;;;;;19.90;56.78;101565.78;7401757;19;1857;-78
2023/01/13 04:47:02;;;;;;;;;;;;;;;19.98;56.47;101561.50;7401712;19;1596;-78
2023/01/13 04:49:33;;;;;;;;;;;;;;;20.03;56.69;101553.06;7404437;19;1674;-78
2023/01/13 04:52:02;;;;;;;;;;;;;;;20.00;57.06;101556.03;7403833;19;1324;-78
2023/01/13 04:54:30;;;;;;;;;;;;;;;20.06;56.74;101572.47;7405531;19;1572;-78
2023/01/13 04:56:59;;;;;;;;;;;;;;;19.93;57.00;101558.31;7406131;19;1061;-78
2023/01/13 04:59:27;;;;;;;;;;;;;;;19.05;58.73;101549.00;7403016;19;1608;-78
2023/01/13 05:01:55;;;;;;;;;;;;;;;18.42;60.64;101568.88;7402297;19;1542;-78
2023/01/13 05:04:23;;;;;;;;;;;;;;;17.97;61.90;101588.16;7396627;19;1858;-77
2023/01/13 05:06:55;;;;;;;;;;;;;;;17.68;62.60;101583.00;7403670;19;1592;-78
2023/01/13 05:09:23;;;;;;;;;;;;;;;17.72;62.95;101574.75;7403795;19;1362;-78
2023/01/13 05:17:15;;;;;;;;;;;;;;;20.02;56.74;101564.81;7404133;19;1654;-78
2023/01/13 05:19:43;;;;;;;;;;;;;;;19.82;57.49;101577.97;7402830;19;1328;-78
2023/01/13 05:27:47;;;;;;;;;;;;;;;19.90;57.77;101576.53;7402843;19;1568;-78
2023/01/13 05:30:16;;;;;;;;;;;;;;;19.98;57.24;101579.44;7407667;19;1655;-78
2023/01/13 05:32:44;;;;;;;;;;;;;;;20.06;57.30;101593.13;7406096;19;1576;-78
2023/01/13 05:35:14;;;;;;;;;;;;;;;20.16;56.82;101577.13;7410911;19;1415;-78
2023/01/13 05:37:46;;;;;;;;;;;;;;;20.25;56.57;101581.72;7410736;19;1674;-78
2023/01/13 05:45:43;;;;;;;;;;;;;;;20.12;57.11;101573.81;7409930;19;2149;-78
2023/01/13 05:48:11;;;;;;;;;;;;;;;19.90;57.77;101581.91;7410569;19;1684;-78
2023/01/13 05:50:39;;;;;;;;;;;;;;;19.93;57.33;101585.16;7408429;19;1598;-78
2023/01/13 05:53:10;;;;;;;;;;;;;;;19.94;57.53;101586.03;7409903;19;1564;-78
2023/01/13 05:55:40;;;;;;;;;;;;;;;19.85;57.80;101587.59;7408708;19;1411;-77
2023/01/13 05:58:09;;;;;;;;;;;;;;;19.98;57.52;101588.34;7409035;19;1478;-78
2023/01/13 06:00:37;;;;;;;;;;;;;;;20.07;57.08;101597.50;7409380;19;1272;-77
2023/01/13 06:03:06;;;;;;;;;;;;;;;20.04;57.55;101593.22;7403950;19;1509;-77
2023/01/13 06:05:35;;;;;;;;;;;;;;;20.05;58.13;101580.66;7408096;19;1840;-78
2023/01/13 06:08:04;;;;;;;;;;;;;;;19.44;59.40;101592.53;7408939;19;1559;-77
2023/01/13 06:10:36;;;;;;;;;;;;;;;18.75;61.29;101600.38;7407749;19;1504;-77
2023/01/13 06:13:04;;;;;;;;;;;;;;;18.24;62.42;101574.63;7410250;19;1438;-78
2023/01/13 06:22:00;;;;;;;;;;;;;;;17.59;66.36;101609.53;7429275;19;1459;-76
2023/01/13 06:24:29;;;;;;;;;;;;;;;17.68;67.02;101611.56;7440395;19;1317;-76
2023/01/13 06:26:58;;;;;;;;;;;;;;;18.34;66.21;101606.09;7434745;19;1441;-79
2023/01/13 06:29:28;;;;;;;;;;;;;;;18.97;63.86;101622.94;7439383;19;1040;-76
2023/01/13 06:31:56;;;;;;;;;;;;;;;19.54;62.50;101622.19;7435889;19;1606;-75
2023/01/13 06:34:24;;;;;;;;;;;;;;;19.78;62.07;101611.41;7439248;19;2055;-76
2023/01/13 06:36:54;;;;;;;;;;;;;;;19.66;62.74;101612.34;7439565;19;1581;-76
2023/01/13 06:39:29;;;;;;;;;;;;;;;19.65;62.40;101637.44;7439493;19;1605;-76
2023/01/13 06:44:53;;;;;;;;;;;;;;;19.25;63.03;101624.41;6405070;19;10000620;-76
2023/01/13 06:47:21;;;;;;;;;;;;;;;19.10;63.65;101625.53;7430501;19;1399;-76
2023/01/13 06:49:49;;;;;;;;;;;;;;;18.90;63.87;101641.31;7432259;19;1083;-76
2023/01/13 06:52:22;;;;;;;;;;;;;;;19.17;63.54;101640.22;7430215;19;1705;-76
2023/01/13 06:54:53;;;;;;;;;;;;;;;19.11;63.94;101646.03;7431662;19;1214;-76
2023/01/13 06:57:21;;;;;;;;;;;;;;;19.33;64.11;101632.72;7429388;19;1223;-76
2023/01/13 06:59:49;;;;;;;;;;;;;;;19.39;64.01;101634.06;7427690;19;1864;-76
2023/01/13 07:02:18;;;;;;;;;;;;;;;19.38;64.62;101652.00;7425658;19;1442;-76
2023/01/13 07:04:46;;;;;;;;;;;;;;;19.26;64.58;101642.22;7430826;19;1171;-76
2023/01/13 07:07:15;;;;;;;;;;;;;;;19.15;65.11;101628.75;7427025;19;1387;-76
2023/01/13 07:09:43;;;;;;;;;;;;;;;19.17;65.48;101656.31;7438366;19;1694;-76
2023/01/13 07:12:14;;;;;;;;;;;;;;;19.28;65.56;101643.81;7432507;19;1590;-76
2023/01/13 07:17:24;;;;;;;;;;;;;;;19.33;64.97;101640.75;7435995;19;1499;-76
2023/01/13 07:19:53;;;;;;;;;;;;;;;19.35;64.48;101646.88;7437515;19;1855;-76
2023/01/13 07:22:21;;;;;;;;;;;;;;;19.16;66.13;101651.91;7432334;19;2069;-76
2023/01/13 07:24:49;;;;;;;;;;;;;;;19.09;65.82;101646.16;7437181;19;1504;-76
2023/01/13 07:27:20;;;;;;;;;;;;;;;19.00;65.34;101645.03;7434977;19;1575;-76
2023/01/13 07:29:49;;;;;;;;;;;;;;;19.04;64.76;101656.38;7434569;19;1684;-76
2023/01/13 07:32:17;;;;;;;;;;;;;;;19.12;64.25;101650.41;7420039;19;1585;-76
2023/01/13 07:34:45;;;;;;;;;;;;;;;19.11;64.29;101638.84;7406438;19;1479;-76
2023/01/13 07:37:13;;;;;;;;;;;;;;;19.15;63.59;101656.41;7404651;19;1427;-76
2023/01/13 07:39:44;;;;;;;;;;;;;;;19.19;63.21;101654.34;7408108;19;1823;-76
2023/01/13 07:44:55;;;;;;;;;;;;;;;19.10;64.24;101668.44;7405941;19;1672;-82
2023/01/13 07:47:24;;;;;;;;;;;;;;;19.24;63.63;101662.94;7407670;19;1462;-82
2023/01/13 07:49:52;;;;;;;;;;;;;;;19.25;63.79;101661.94;7409238;19;1098;-82
2023/01/13 07:52:20;;;;;;;;;;;;;;;19.18;63.98;101668.72;7405108;19;1547;-82
2023/01/13 07:54:49;;;;;;;;;;;;;;;19.27;63.56;101660.84;7408057;19;1813;-82
2023/01/13 07:57:17;;;;;;;;;;;;;;;19.27;63.65;101668.88;7407480;19;1737;-82
2023/01/13 07:59:45;;;;;;;;;;;;;;;19.23;63.52;101671.94;7406588;19;1639;-81
2023/01/13 08:02:16;;;;;;;;;;;;;;;19.13;64.08;101658.34;7404750;19;1846;-82
2023/01/13 08:04:44;;;;;;;;;;;;;;;19.21;63.68;101665.81;7408021;19;1114;-82
2023/01/13 08:07:12;;;;;;;;;;;;;;;19.14;63.90;101660.06;7406814;19;1375;-78
2023/01/13 08:09:41;;;;;;;;;;;;;;;19.01;64.26;101665.47;7406769;19;1502;-77
2023/01/13 08:14:58;;;;;;;;;;;;;;;19.11;64.36;101671.00;7400884;19;1745;-78
2023/01/13 08:17:29;;;;;;;;;;;;;;;19.15;64.37;101680.53;7407317;19;1593;-78
2023/01/13 08:19:57;;;;;;;;;;;;;;;19.26;64.16;101680.59;7406604;19;1091;-78
2023/01/13 08:22:26;;;;;;;;;;;;;;;19.20;64.22;101674.81;7402321;19;1829;-77
2023/01/13 08:24:55;;;;;;;;;;;;;;;19.24;64.12;101679.00;7406756;19;1763;-78
2023/01/13 08:27:23;;;;;;;;;;;;;;;19.27;64.31;101676.09;7406605;19;1347;-78
2023/01/13 08:29:56;;;;;;;;;;;;;;;19.29;64.03;101684.88;7405178;19;1487;-78
2023/01/13 08:32:27;;;;;;;;;;;;;;;19.33;63.57;101672.94;7406256;19;1478;-78
2023/01/13 08:35:08;;;;;;;;;;;;;;;19.37;63.49;101676.25;7406352;19;1325;-78
2023/01/13 08:37:38;;;;;;;;;;;;;;;19.25;63.78;101675.34;7407132;19;996;-78
2023/01/13 08:40:10;;;;;;;;;;;;;;;19.19;63.88;101683.84;7407277;19;1822;-78
2023/01/13 08:42:38;;;;;;;;;;;;;;;19.22;63.69;101664.88;7404110;19;1727;-78
2023/01/13 08:45:09;;;;;;;;;;;;;;;19.12;63.91;101671.88;7404393;19;1700;-78
2023/01/13 08:47:37;;;;;;;;;;;;;;;19.11;63.52;101670.16;7405917;19;1613;-78
2023/01/13 08:50:10;;;;;;;;;;;;;;;19.19;63.29;101663.25;7406473;19;1549;-78
2023/01/13 08:52:40;;;;;;;;;;;;;;;19.25;63.23;101678.88;7407040;19;1119;-78
2023/01/13 08:55:13;;;;;;;;;;;;;;;19.18;63.65;101663.34;7406666;19;1004;-78
2023/01/13 08:57:41;;;;;;;;;;;;;;;19.10;63.77;101647.00;7406049;19;1790;-78
2023/01/13 09:00:10;;;;;;;;;;;;;;;19.14;63.62;101643.13;7392901;19;1626;-79
2023/01/13 09:02:39;;;;;;;;;;;;;;;19.05;63.81;101634.78;7398639;19;1861;-79
2023/01/13 09:05:11;;;;;;;;;;;;;;;18.85;64.01;101643.47;7271161;19;13613;-78
2023/01/13 09:07:40;;;;;;;;;;;;;;;19.04;63.69;101651.00;7315616;19;12874;-79
2023/01/13 09:10:09;;;;;;;;;;;;;;;19.02;63.48;101634.16;7396893;19;1372;-78
2023/01/13 09:15:19;;;;;;;;;;;;;;;18.89;63.89;101628.88;7402570;19;1373;-78
2023/01/13 09:17:47;;;;;;;;;;;;;;;19.07;63.55;101638.22;7403197;19;1392;-78
2023/01/13 09:20:18;;;;;;;;;;;;;;;19.05;63.48;101637.47;7403734;19;1547;-78
2023/01/13 09:22:46;;;;;;;;;;;;;;;18.82;63.94;101641.88;7400402;19;1932;-78
2023/01/13 09:25:15;;;;;;;;;;;;;;;18.43;65.70;101653.63;7403792;19;1312;-78
2023/01/13 09:27:43;;;;;;;;;;;;;;;17.99;66.49;101633.56;7403359;19;1423;-78
2023/01/13 09:35:46;;;;;;;;;;;;;;;17.39;67.19;101625.13;7404352;19;1257;-78
2023/01/13 09:38:14;;;;;;;;;;;;;;;17.27;68.12;101633.97;7400375;19;1430;-78
2023/01/13 09:40:43;;;;;;;;;;;;;;;17.21;66.82;101629.03;7401439;19;1850;-78
2023/01/13 09:46:01;;;;;;;;;;;;;;;17.10;68.77;101613.72;7404724;19;1325;-78
2023/01/13 09:48:31;;;;;;;;;;;;;;;17.04;69.15;101632.84;7396580;19;2038;-77
2023/01/13 09:51:08;;;;;;;;;;;;;;;16.95;67.86;101630.75;7401820;19;1376;-78
2023/01/13 09:56:30;;;;;;;;;;;;;;;18.19;65.21;101626.78;7394574;19;1701;-78
2023/01/13 09:58:59;;;;;;;;;;;;;;;18.83;63.48;101632.84;7400095;19;1589;-78
2023/01/13 10:01:31;;;;;;;;;;;;;;;19.27;62.06;101617.09;7400607;19;1870;-78
2023/01/13 10:04:04;;;;;;;;;;;;;;;19.45;61.76;101604.94;7403246;19;1123;-77
2023/01/13 10:06:37;;;;;;;;;;;;;;;19.69;61.14;101606.72;7398912;19;1762;-78
2023/01/13 10:09:06;;;;;;;;;;;;;;;19.57;61.13;101595.09;7401929;19;1447;-78
2023/01/13 10:14:19;;;;;;;;;;;;;;;19.14;62.03;101600.22;7402281;19;1476;-78
2023/01/13 10:16:52;;;;;;;;;;;;;;;19.08;62.64;101590.84;7400771;19;1365;-78
2023/01/13 10:19:23;;;;;;;;;;;;;;;19.12;62.39;101592.31;7401598;19;1079;-78
2023/01/13 10:22:04;;;;;;;;;;;;;;;19.00;62.80;101578.00;7398029;19;1857;-78
2023/01/13 10:24:49;;;;;;;;;;;;;;;19.35;61.87;101581.66;7400050;19;1503;-78
2023/01/13 10:27:24;;;;;;;;;;;;;;;19.49;61.16;101589.47;7402610;19;1414;-78
2023/01/13 10:29:52;;;;;;;;;;;;;;;19.52;61.15;101574.97;7402128;19;1573;-77
2023/01/13 10:32:20;;;;;;;;;;;;;;;19.35;61.37;101589.69;7399766;19;1594;-78
2023/01/13 10:34:50;;;;;;;;;;;;;;;19.26;61.98;101572.50;7401209;19;1007;-78
2023/01/13 10:37:26;;;;;;;;;;;;;;;19.19;62.12;101587.31;7401395;19;1732;-78
2023/01/13 10:39:56;;;;;;;;;;;;;;;19.15;61.95;101581.34;7401414;19;1768;-78
2023/01/13 10:42:25;;;;;;;;;;;;;;;18.93;62.57;101560.66;7399098;19;1843;-78
2023/01/13 10:44:54;;;;;;;;;;;;;;;19.02;62.54;101567.16;7400878;19;1405;-78
2023/01/13 10:47:24;;;;;;;;;;;;;;;19.30;61.81;101571.28;7400231;19;1590;-79
2023/01/13 10:50:07;;;;;;;;;;;;;;;19.11;60.21;101563.78;7392580;19;1472;-78
2023/01/13 10:52:42;;;;;;;;;;;;;;;19.45;59.31;101559.34;7393261;19;1270;-78
2023/01/13 10:55:26;;;;;;;;;;;;;;;19.57;59.33;101556.69;7398148;19;1344;-78
2023/01/13 10:57:54;;;;;;;;;;;;;;;19.53;59.65;101560.59;7395197;19;1349;-82
2023/01/13 11:00:27;;;;;;;;;;;;;;;19.56;59.76;101568.41;7397791;19;1782;-77
2023/01/13 11:03:07;;;;;;;;;;;;;;;19.33;60.58;101568.34;7395807;19;1871;-77
2023/01/13 11:05:35;;;;;;;;;;;;;;;19.35;60.57;101566.41;7398035;19;1609;-77
2023/01/13 11:08:06;;;;;;;;;;;;;;;19.30;61.10;101541.78;7402825;19;1455;-77
2023/01/13 11:10:37;;;;;;;;;;;;;;;19.27;60.71;101550.91;7405057;19;1383;-77
2023/01/13 11:13:07;;;;;;;;;;;;;;;19.28;60.69;101543.72;7407437;19;1621;-78
2023/01/13 11:15:52;;;;;;;;;;;;;;;19.31;60.81;101545.31;7402507;19;1118;-78
2023/01/13 11:18:25;;;;;;;;;;;;;;;19.27;60.41;101542.00;7409362;19;1143;-78
2023/01/13 11:20:54;;;;;;;;;;;;;;;19.40;60.57;101555.34;7404140;19;1743;-77
2023/01/13 11:23:30;;;;;;;;;;;;;;;19.32;60.70;101539.84;7402211;19;1883;-78
2023/01/13 11:26:02;;;;;;;;;;;;;;;19.27;61.01;101548.22;7407110;19;1412;-77
2023/01/13 11:28:39;;;;;;;;;;;;;;;19.33;61.15;101541.53;7407532;19;1728;-78
2023/01/13 11:31:12;;;;;;;;;;;;;;;19.39;61.17;101551.78;7406980;19;1619;-77
2023/01/13 11:33:43;;;;;;;;;;;;;;;19.33;61.12;101530.81;7405602;19;1780;-77
2023/01/13 11:36:13;;;;;;;;;;;;;;;19.40;60.90;101541.94;7406670;19;1404;-77
2023/01/13 11:38:50;;;;;;;;;;;;;;;19.35;60.87;101539.59;7407225;19;1589;-77
2023/01/13 11:41:32;;;;;;;;;;;;;;;19.33;61.32;101541.53;7405644;19;1849;-78
2023/01/13 11:44:07;;;;;;;;;;;;;;;19.24;61.30;101515.44;7405157;19;1545;-77
2023/01/13 11:46:35;;;;;;;;;;;;;;;19.33;61.17;101528.13;7406163;19;1700;-77
2023/01/13 11:49:04;;;;;;;;;;;;;;;19.35;61.00;101534.22;7408089;19;1083;-77
2023/01/13 11:51:37;;;;;;;;;;;;;;;19.44;60.54;101514.75;7404851;19;1713;-78
2023/01/13 11:54:23;;;;;;;;;;;;;;;19.41;60.73;101528.38;7405813;19;1673;-77
2023/01/13 11:57:05;;;;;;;;;;;;;;;19.17;61.27;101527.59;7405448;19;1499;-78
2023/01/13 11:59:44;;;;;;;;;;;;;;;19.33;61.02;101535.31;7405502;19;1536;-78
2023/01/13 12:02:21;;;;;;;;;;;;;;;19.33;60.89;101525.44;7405059;19;1857;-78
2023/01/13 12:04:54;;;;;;;;;;;;;;;19.36;60.77;101529.69;7403755;19;1536;-77
2023/01/13 12:07:28;;;;;;;;;;;;;;;19.63;59.84;101522.19;7402388;19;1669;-77
2023/01/13 12:10:04;;;;;;;;;;;;;;;19.50;59.81;101516.09;7405170;19;1752;-79
2023/01/13 12:12:40;;;;;;;;;;;;;;;19.41;60.00;101528.38;7404760;19;1693;-77
2023/01/13 12:15:23;;;;;;;;;;;;;;;19.42;59.89;101508.63;7401357;19;1708;-77
2023/01/13 12:17:56;;;;;;;;;;;;;;;19.42;60.36;101507.78;7404626;19;1334;-77
2023/01/13 12:20:33;;;;;;;;;;;;;;;19.36;61.06;101527.91;7405274;19;1499;-77
2023/01/13 12:23:03;;;;;;;;;;;;;;;19.37;61.48;101493.88;7402251;19;1837;-77
2023/01/13 12:25:38;;;;;;;;;;;;;;;19.36;61.72;101505.56;7402307;19;1606;-77
2023/01/13 12:28:10;;;;;;;;;;;;;;;19.31;62.45;101521.19;7401711;19;1667;-77
2023/01/13 12:30:42;;;;;;;;;;;;;;;19.33;62.44;101520.06;7404362;19;1419;-77
2023/01/13 12:33:20;;;;;;;;;;;;;;;19.34;62.00;101505.72;7405152;19;1253;-77
2023/01/13 12:35:53;;;;;;;;;;;;;;;19.28;62.35;101512.41;7404454;19;1477;-77
2023/01/13 12:38:26;;;;;;;;;;;;;;;19.17;62.62;101517.72;7404156;19;1372;-77
2023/01/13 12:41:04;;;;;;;;;;;;;;;19.25;63.11;101533.22;7405014;19;1389;-77
2023/01/13 12:46:31;;;;;;;;;;;;;;;19.39;63.13;101521.44;7404877;19;1289;-77
2023/01/13 12:49:06;;;;;;;;;;;;;;;19.31;62.83;101489.84;7403797;19;1688;-77
2023/01/13 12:51:36;;;;;;;;;;;;;;;19.28;62.75;101507.03;7403548;19;1520;-77
2023/01/13 12:54:07;;;;;;;;;;;;;;;19.19;62.48;101506.88;7400943;19;1585;-77
2023/01/13 12:56:45;;;;;;;;;;;;;;;19.14;62.94;101515.28;7402789;19;1378;-77
2023/01/13 12:59:28;;;;;;;;;;;;;;;19.44;62.83;101522.78;7404221;19;1494;-77
2023/01/13 13:02:11;;;;;;;;;;;;;;;19.90;61.60;101501.38;7402337;19;1856;-77
2023/01/13 13:04:48;;;;;;;;;;;;;;;20.14;61.61;101511.94;7402471;19;1550;-77
2023/01/13 13:07:18;;;;;;;;;;;;;;;19.99;62.00;101524.78;7402386;19;1385;-77
2023/01/13 13:09:51;;;;;;;;;;;;;;;19.96;62.62;101522.34;7403099;19;1289;-77
2023/01/13 13:15:27;;;;;;;;;;;;;;;19.77;63.58;101521.13;7402949;19;1441;-77
2023/01/13 13:18:27;;;;;;;;;;;;;;;19.76;63.63;101522.09;7402444;19;1668;-77
2023/01/13 13:21:03;;;;;;;;;;;;;;;19.76;64.06;101538.22;7400020;19;1476;-77
2023/01/13 13:23:46;;;;;;;;;;;;;;;19.69;64.23;101528.88;7400937;19;1844;-77
2023/01/13 13:26:30;;;;;;;;;;;;;;;19.68;64.07;101535.25;7401104;19;1454;-77
2023/01/13 13:29:16;;;;;;;;;;;;;;;19.65;64.09;101536.31;7401904;19;1503;-77
2023/01/13 13:32:08;;;;;;;;;;;;;;;19.73;63.71;101525.03;7402204;19;1268;-77
2023/01/13 13:34:44;;;;;;;;;;;;;;;19.75;63.49;101524.91;7402230;19;1513;-78
2023/01/13 13:37:22;;;;;;;;;;;;;;;19.76;63.43;101527.47;7401917;19;1728;-77
2023/01/13 13:48:01;;;;;;;;;;;;;;;19.71;63.62;101532.34;7403341;19;1393;-80
2023/01/13 13:50:34;;;;;;;;;;;;;;;19.67;63.91;101544.25;7402976;19;1455;-80
2023/01/13 13:53:08;;;;;;;;;;;;;;;19.68;63.73;101536.09;7403925;19;1127;-80
2023/01/13 13:55:37;;;;;;;;;;;;;;;19.70;63.73;101546.72;7403083;19;1480;-79
2023/01/13 13:58:05;;;;;;;;;;;;;;;19.52;63.06;101550.81;7402639;19;1494;-76
2023/01/13 14:00:35;;;;;;;;;;;;;;;19.59;62.73;101531.44;7402056;19;1616;-77
2023/01/13 14:03:05;;;;;;;;;;;;;;;19.52;63.08;101556.19;7394475;19;1863;-77
2023/01/13 14:05:36;;;;;;;;;;;;;;;19.60;62.93;101538.53;7398498;19;1404;-77
2023/01/13 14:08:09;;;;;;;;;;;;;;;19.66;62.60;101543.41;7396273;19;1344;-77
2023/01/13 14:10:38;;;;;;;;;;;;;;;19.63;62.77;101542.78;7399230;19;1326;-77
2023/01/13 14:13:15;;;;;;;;;;;;;;;19.64;62.75;101550.72;7398308;19;1162;-76
2023/01/13 14:15:43;;;;;;;;;;;;;;;19.57;62.92;101544.13;7398902;19;1788;-76
2023/01/13 14:18:14;;;;;;;;;;;;;;;19.57;62.81;101549.50;7397403;19;1759;-77
2023/01/13 14:20:45;;;;;;;;;;;;;;;19.57;62.82;101545.97;7398373;19;1424;-77
2023/01/13 14:23:18;;;;;;;;;;;;;;;19.64;62.74;101545.38;7397448;19;1859;-77
2023/01/13 14:25:48;;;;;;;;;;;;;;;19.64;62.37;101547.19;7399352;19;1102;-77